Flight Track Log - Related Links

Times and Time Zones

All times are in EDT time to prevent confusion due to time zone crossing. See the SWA22 flight status page for this flight to view local times or setup timezone preferences in your user account.


Time Position Orientation Groundspeed Altitude Reporting Facility
EDT Latitude Longitude Course Direction KTS MPH feet Rate Location/Type
Mon 02:01:01 PM 32.8333 -96.8333 140° Southeast 175 201 1,600  Level Dallas / Fort Worth TRACON
Mon 02:01:31 PM 32.8167 -96.8167 140° Southeast 172 198 2,500 2,333 Climbing Dallas / Fort Worth TRACON
Mon 02:02:31 PM 32.7833 -96.7500 121° Southeast 235 270 5,100 1,900 Climbing Dallas / Fort Worth TRACON
Mon 02:03:31 PM 32.7333 -96.7167 151° Southeast 247 284 6,300 1,877 Climbing Dallas / Fort Worth TRACON
Mon 02:05:30 PM 32.5897 -96.8167 210° Southwest 292 336 10,700 2,547 Climbing Fort Worth Center
Mon 02:06:30 PM 32.5128 -96.8764 213° Southwest 324 373 13,900 2,750 Climbing Fort Worth Center
Mon 02:07:30 PM 32.4358 -96.9383 214° Southwest 366 421 16,200 2,600 Climbing Fort Worth Center
Mon 02:08:30 PM 32.3275 -96.9806 198° South 373 429 19,100 2,750 Climbing Fort Worth Center
Mon 02:09:30 PM 32.2169 -96.9958 187° South 386 444 21,700 2,550 Climbing Fort Worth Center
Mon 02:10:30 PM 32.1083 -97.0111 187° South 393 452 24,200 2,350 Climbing Fort Worth Center
Mon 02:11:30 PM 31.9956 -97.0239 185° South 409 471 26,400 2,150 Climbing Fort Worth Center
Mon 02:12:30 PM 31.8831 -97.0414 188° South 409 471 28,500 1,707 Climbing Fort Worth Center
Mon 02:13:33 PM 31.7642 -97.0536 185° South 417 480 29,900 750 Climbing Houston Center
Mon 02:14:30 PM 31.6575 -97.0692 187° South 423 487 30,000 48 Climbing Fort Worth Center
Mon 02:15:37 PM 31.5244 -97.0842 185° South 427 491 30,000  Level Houston Center
Mon 02:16:39 PM 31.4142 -97.1297 199° South 418 481 30,000  Level Houston Center
Mon 02:17:41 PM 31.3011 -97.1728 198° South 420 483 30,000  Level Houston Center
Mon 02:18:43 PM 31.1900 -97.2167 199° South 418 481 30,000  Level Houston Center
Mon 02:19:45 PM 31.0606 -97.2675 199° South 416 479 30,000  Level Houston Center
Mon 02:20:47 PM 30.9628 -97.3036 198° South 423 487 30,000  Level Houston Center
Mon 02:21:49 PM 30.8397 -97.3525 199° South 428 493 30,000 -97 Level Houston Center
Mon 02:22:51 PM 30.7281 -97.3947 198° South 422 486 29,800 -677 Descending Houston Center
Mon 02:23:53 PM 30.5944 -97.4472 199° South 429 494 28,600 -1,065 Descending Houston Center
Mon 02:24:55 PM 30.4800 -97.4903 198° South 429 494 27,600 -1,488 Descending Houston Center
Mon 02:25:58 PM 30.3692 -97.5344 199° South 419 482 25,500 -1,872 Descending Houston Center
Mon 02:27:00 PM 30.2875 -97.6172 221° Southwest 390 449 23,700 -1,935 Descending Houston Center
Mon 02:28:02 PM 30.2211 -97.7067 229° Southwest 365 420 21,500 -2,084 Descending Houston Center
Mon 02:28:35 PM 30.1839 -97.7456 222° Southwest 350 403 20,400 -2,032 Descending Houston Center
Mon 02:29:04 PM 30.1494 -97.7825 223° Southwest 349 402 19,400 -2,449 Descending Houston Center
Mon 02:29:24 PM 30.1169 -97.8147 221° Southwest 343 395 18,400 -2,419 Descending Houston Center
Mon 02:30:06 PM 30.0628 -97.8575 214° Southwest 336 387 16,900 -2,200 Descending Houston Center
Mon 02:30:24 PM 30.0364 -97.8731 207° Southwest 333 383 16,200 -2,032 Descending Houston Center
Mon 02:31:08 PM 29.9822 -97.9086 210° Southwest 330 380 14,800 -1,869 Descending Houston Center
Mon 02:31:25 PM 29.9622 -97.9308 224° Southwest 322 371 14,300 -2,032 Descending Houston Center
Mon 02:32:10 PM 29.9286 -97.9958 239° Southwest 308 354 12,700 -2,239 Descending Houston Center
Mon 02:32:32 PM 29.9128 -98.0311 243° Southwest 314 361 11,800 -1,935 Descending Houston Center
Mon 02:33:12 PM 29.8861 -98.0850 240° Southwest 316 364 10,700 -1,475 Descending Houston Center
Mon 02:33:33 PM 29.8750 -98.1203 250° West 309 356 10,300 -1,355 Descending Houston Center
Mon 02:34:14 PM 29.8517 -98.1781 245° Southwest 291 335 9,300 -1,475 Descending Houston Center
Mon 02:34:34 PM 29.8450 -98.2033 253° West 281 323 8,800 -1,839 Descending Houston Center
Mon 02:35:16 PM 29.8044 -98.2433 221° Southwest 279 321 7,400 -1,869 Descending Houston Center
Mon 02:35:35 PM 29.7878 -98.2633 226° Southwest 275 316 6,900 -952 Descending Houston Center
Mon 02:36:19 PM 29.7475 -98.3153 228° Southwest 282 325 6,400 -600 Descending Houston Center
Mon 02:36:35 PM 29.7372 -98.3322 235° Southwest 281 323 6,300 -387 Descending Houston Center
Mon 02:37:21 PM 29.6994 -98.3803 228° Southwest 269 310 6,000 -295 Descending Houston Center
Mon 02:37:36 PM 29.6864 -98.3936 222° Southwest 267 307 6,000 -290 Level Houston Center
Mon 02:38:23 PM 29.6583 -98.4494 240° Southwest 248 285 5,700 -776 Descending Houston Center
Mon 02:39:32 PM 29.6942 -98.5250 299° West 232 267 4,500 -1,113 Descending Houston Center
Mon 02:40:27 PM 29.7047 -98.5911 280° West 232 267 3,400 -821 Descending Houston Center
Mon 02:41:29 PM 29.6703 -98.6344 228° Southwest 189 217 2,900 -290 Descending Houston Center
Mon 02:42:31 PM 29.6303 -98.5992 143° Southeast 176 203 2,800 -150 Descending Houston Center
Mon 02:43:29 PM 29.6011 -98.5625 132° Southeast 176 203 2,600 -528 Descending Houston Center
Mon 02:44:36 PM 29.5706 -98.5203 130° Southeast 146 168 1,700 -744 Descending Houston Center
Mon 02:45:38 PM 29.5478 -98.4894 130° Southeast 131 151 1,000 -677 Descending Houston Center
Mon 02:47:00 PM 29.5333 -98.4667 133° Southeast  Level FlightAware Approximate
Mon 02:54:00 PM 29.5340 -98.4691 133° Southeast  Level Estimated
Mon 02:55:00 PM 29.5333 -98.4667 133° Southeast  Level FlightAware Approximate

Login

Don't have an account? Register now (free) for customized features, flight alerts, and more!